Terminal Aerodrome Forecast
Issued by NWS Binghamton, NY

Home | Current Version | Previous Version | Text Only | Print | Product List | Glossary On
Versions: 1 2 3 4 5 6 7 8 9 10 11 12 13 14 15 16
420
FTUS41 KBGM 081124
TAFBGM
TAF
KBGM 081124Z 0812/0912 09005KT P6SM SCT120 BKN250
     FM081800 12008KT P6SM BKN100
     FM090000 13007KT P6SM OVC040
     FM090600 13007KT 3SM -SHSN BR OVC022=

USA.gov is the U.S. government's official web portal to all federal, state and local government web resources and services.